Platzwetter Flugplatz Wels

Flugwetter Linz LOWL

[Quelle: ADDS]
METAR
LOWL 192050Z AUTO 05003KT 9999 BKN130 21/14 Q1016 NOSIG =
LOWL 191715Z 1918/2018 VRB03KT CAVOK TX31/2014Z TN16/2004Z TEMPO 2009/2015 09005KT 9999 FEW050
TAF
LOWL 191715Z 1918/2018 VRB03KT CAVOK TX31/2014Z TN16/2004Z TEMPO 2009/2015 09005KT 9999 FEW050 =

Flugwetter Salzburg LOWS

[Quelle: ADDS]
METAR
LOWS 192050Z 17003KT 9999 FEW100 SCT300 21/14 Q1016 NOSIG =
LOWS 191715Z 1918/2018 36005KT 9999 FEW060 BKN140 TX30/2014Z TN17/2003Z BECMG 1919/1921 15006KT CAVOK BECMG 2007/2009 34005KT 9999 FEW060 SCT140 PROB40 TEMPO 2014/2018 SCT060 FEW060CB SCT300
TAF
LOWS 191715Z 1918/2018 36005KT 9999 FEW060 BKN140 TX30/2014Z TN17/2003Z BECMG 1919/1921 15006KT CAVOK BECMG 2007/2009 34005KT 9999 FEW060 SCT140 PROB40 TEMPO 2014/2018 SCT060 FEW060CB SCT300 =

Wind - Verlauf

Windrichtung - Verlauf

Temperatur - Verlauf

Relative Luftfeuchtigkeit - Verlauf

Luftdruck - Verlauf


Pilot für einen Tag - Erfülle Dir den Traum vom Fliegen!

Werde einen Tag lang Pilot bei und mit dem Fliegerclub Weiße Möwe in Wels!

Stadt - Wels

Ausflugsziele & Sehenswürdigkeiten
in Wels und Umgebung

RUNDFLÜGE MIT DER ANTONOV AN-2 (Tiroler Adler)

Jetzt Rundflug-Tickets mit der legendären ANTONOV in Wels sichern!
Cookies erleichtern die Bereitstellung unserer Dienste. Mit der Nutzung unserer Dienste erklären Sie sich damit einverstanden, dass wir Cookies verwenden.
Weitere Informationen Ok